createdAt,value
2022-10-16T00:00:59.850Z,2.05
2022-10-16T00:03:30.287Z,1.13
2022-10-16T00:06:01.894Z,0.90
2022-10-16T00:08:30.164Z,0.70
2022-10-16T00:11:02.554Z,0.77
2022-10-16T00:13:30.623Z,0.70
2022-10-16T00:15:59.588Z,1.10
2022-10-16T00:18:27.927Z,1.05
2022-10-16T00:23:29.753Z,0.68
2022-10-16T00:25:58.747Z,0.90
2022-10-16T00:28:26.740Z,0.60
2022-10-16T00:30:55.235Z,0.73
2022-10-16T00:33:23.243Z,1.20
2022-10-16T00:35:51.215Z,1.00
2022-10-16T00:38:19.251Z,0.80
2022-10-16T00:40:48.271Z,0.80
2022-10-16T00:43:31.886Z,0.80
2022-10-16T00:46:00.187Z,0.50
2022-10-16T00:48:27.875Z,0.60
2022-10-16T00:50:55.845Z,0.52
2022-10-16T00:53:24.032Z,0.52
2022-10-16T00:55:53.217Z,0.93
2022-10-16T00:58:22.211Z,1.30
2022-10-16T01:00:50.024Z,1.30
2022-10-16T01:03:27.268Z,0.90
2022-10-16T01:06:08.885Z,1.23
2022-10-16T01:08:45.698Z,1.33
2022-10-16T01:11:24.036Z,0.70
2022-10-16T01:13:56.997Z,0.88
2022-10-16T01:16:34.421Z,1.05
2022-10-16T01:19:11.155Z,0.90
2022-10-16T01:21:44.051Z,0.95
2022-10-16T01:24:19.825Z,0.93
2022-10-16T01:27:07.124Z,0.93
2022-10-16T01:29:40.859Z,1.00
2022-10-16T01:32:23.713Z,0.90
2022-10-16T01:34:54.503Z,1.00
2022-10-16T01:37:30.461Z,0.55
2022-10-16T01:40:02.095Z,0.80
2022-10-16T01:42:37.269Z,0.90
2022-10-16T01:45:08.806Z,1.10
2022-10-16T01:47:38.190Z,0.80
2022-10-16T01:50:07.443Z,0.68
2022-10-16T01:52:39.675Z,0.70
2022-10-16T01:55:10.519Z,0.77
2022-10-16T01:57:44.593Z,0.75
2022-10-16T02:00:15.227Z,1.23
2022-10-16T02:02:46.887Z,0.68
2022-10-16T02:05:20.892Z,0.80
2022-10-16T02:07:49.396Z,0.85
2022-10-16T02:10:17.565Z,0.80
2022-10-16T02:12:51.523Z,0.70
2022-10-16T02:15:19.334Z,1.08
2022-10-16T02:17:47.026Z,0.80
2022-10-16T02:20:15.120Z,0.98
2022-10-16T02:22:47.564Z,0.77
2022-10-16T02:25:19.763Z,0.80
2022-10-16T02:27:54.736Z,0.70
2022-10-16T02:30:27.117Z,0.90
2022-10-16T02:32:56.244Z,1.00
2022-10-16T02:35:25.956Z,0.90
2022-10-16T02:37:54.498Z,1.10
2022-10-16T02:40:25.195Z,1.10
2022-10-16T02:42:56.265Z,0.90
2022-10-16T02:45:25.185Z,1.02
2022-10-16T02:47:52.960Z,1.30
2022-10-16T02:50:20.620Z,1.30
2022-10-16T02:52:48.294Z,1.55
2022-10-16T02:55:16.237Z,2.00
2022-10-16T02:57:44.337Z,1.77
2022-10-16T03:00:16.462Z,1.80
2022-10-16T03:02:44.256Z,1.67
2022-10-16T03:05:12.607Z,1.55
2022-10-16T03:07:40.579Z,1.75
2022-10-16T03:10:09.100Z,1.60
2022-10-16T03:12:36.883Z,1.58
2022-10-16T03:15:05.371Z,2.00
2022-10-16T03:17:35.661Z,1.88
2022-10-16T03:20:03.412Z,2.03
2022-10-16T03:22:31.129Z,1.98
2022-10-16T03:24:58.758Z,1.98
2022-10-16T03:27:26.804Z,1.95
2022-10-16T03:29:54.686Z,2.55
2022-10-16T03:32:22.687Z,2.42
2022-10-16T03:34:51.856Z,1.98
2022-10-16T03:37:19.482Z,2.10
2022-10-16T03:39:47.318Z,1.80
2022-10-16T03:42:15.025Z,2.00
2022-10-16T03:44:42.604Z,2.33
2022-10-16T03:47:10.208Z,2.47
2022-10-16T03:49:37.918Z,2.80
2022-10-16T03:52:07.321Z,2.45
2022-10-16T03:54:35.099Z,2.50
2022-10-16T03:57:02.736Z,2.45
2022-10-16T03:59:30.430Z,2.40
2022-10-16T04:01:58.114Z,2.13
2022-10-16T04:04:26.291Z,2.38
2022-10-16T04:06:53.966Z,1.80
2022-10-16T04:09:23.395Z,1.60
2022-10-16T04:11:51.703Z,1.80
2022-10-16T04:14:19.435Z,1.70
2022-10-16T04:16:47.128Z,1.70
2022-10-16T04:19:15.118Z,1.58
2022-10-16T04:21:42.746Z,1.60
2022-10-16T04:24:12.336Z,1.65
2022-10-16T04:26:41.314Z,2.05
2022-10-16T04:29:08.962Z,2.03
2022-10-16T04:31:36.602Z,2.40
2022-10-16T04:34:04.408Z,2.40
2022-10-16T04:36:32.063Z,2.45
2022-10-16T04:38:59.640Z,2.40
2022-10-16T04:41:27.326Z,2.75
2022-10-16T04:43:56.264Z,2.45
2022-10-16T04:46:24.039Z,2.45
2022-10-16T04:48:51.737Z,2.20
2022-10-16T04:51:19.845Z,2.38
2022-10-16T04:53:47.474Z,3.40
2022-10-16T04:56:16.067Z,3.30
2022-10-16T04:58:43.801Z,3.80
2022-10-16T05:01:12.801Z,3.92
2022-10-16T05:03:40.528Z,3.70
2022-10-16T05:06:08.433Z,3.33
2022-10-16T05:08:36.342Z,3.00
2022-10-16T05:11:04.229Z,3.20
2022-10-16T05:13:31.892Z,3.53
2022-10-16T05:15:59.596Z,2.97
2022-10-16T05:18:28.651Z,3.75
2022-10-16T05:20:56.303Z,3.28
2022-10-16T05:23:24.004Z,3.10
2022-10-16T05:25:56.594Z,3.17
2022-10-16T05:28:24.291Z,3.08
2022-10-16T05:30:51.943Z,3.10
2022-10-16T05:33:21.870Z,3.03
2022-10-16T05:35:50.970Z,3.20
2022-10-16T05:38:19.099Z,2.95
2022-10-16T05:40:53.040Z,3.40
2022-10-16T05:43:20.890Z,3.10
2022-10-16T05:45:56.167Z,3.85
2022-10-16T05:48:24.297Z,3.58
2022-10-16T05:51:00.884Z,2.65
2022-10-16T05:53:30.010Z,3.72
2022-10-16T05:55:58.398Z,3.38
2022-10-16T05:58:30.039Z,3.25
2022-10-16T06:00:58.977Z,3.20
2022-10-16T06:03:27.299Z,3.38
2022-10-16T06:05:55.457Z,3.50
2022-10-16T06:08:25.639Z,3.55
2022-10-16T06:11:03.006Z,3.50
2022-10-16T06:13:30.710Z,2.88
2022-10-16T06:15:59.944Z,3.20
2022-10-16T06:18:27.897Z,3.30
2022-10-16T06:20:56.373Z,3.45
2022-10-16T06:23:25.875Z,2.75
2022-10-16T06:25:53.816Z,3.58
2022-10-16T06:28:21.692Z,3.97
2022-10-16T06:30:49.508Z,3.65
2022-10-16T06:33:17.146Z,4.45
2022-10-16T06:35:44.765Z,4.55
2022-10-16T06:38:12.536Z,4.70
2022-10-16T06:40:41.840Z,3.97
2022-10-16T06:43:09.513Z,4.47
2022-10-16T06:45:37.220Z,5.70
2022-10-16T06:48:05.498Z,8.50
2022-10-16T06:50:33.170Z,6.15
2022-10-16T06:53:00.818Z,5.53
2022-10-16T06:55:28.425Z,4.80
2022-10-16T06:57:57.486Z,4.90
2022-10-16T07:02:57.764Z,3.95
2022-10-16T07:05:25.516Z,4.50
2022-10-16T07:07:53.408Z,4.07
2022-10-16T07:10:25.133Z,3.83
2022-10-16T07:12:53.209Z,4.30
2022-10-16T07:15:22.247Z,4.20
2022-10-16T07:17:50.100Z,3.65
2022-10-16T07:20:18.043Z,4.25
2022-10-16T07:22:46.055Z,3.95
2022-10-16T07:25:14.109Z,4.03
2022-10-16T07:27:41.921Z,3.83
2022-10-16T07:30:10.663Z,4.47
2022-10-16T07:32:39.785Z,4.10
2022-10-16T07:35:08.647Z,4.43
2022-10-16T07:37:36.501Z,4.72
2022-10-16T07:40:04.795Z,4.07
2022-10-16T07:42:32.471Z,4.38
2022-10-16T07:45:00.164Z,4.70
2022-10-16T07:47:28.166Z,4.60
2022-10-16T07:49:57.538Z,4.30
2022-10-16T07:52:25.197Z,4.55
2022-10-16T07:54:52.906Z,4.90
2022-10-16T07:57:20.987Z,5.18
2022-10-16T07:59:48.606Z,4.85
2022-10-16T08:02:16.743Z,4.45
2022-10-16T08:04:44.367Z,4.80
2022-10-16T08:07:13.402Z,4.45
2022-10-16T08:09:41.591Z,4.80
2022-10-16T08:12:11.359Z,5.07
2022-10-16T08:14:40.088Z,5.47
2022-10-16T08:17:08.335Z,5.30
2022-10-16T08:19:36.115Z,4.63
2022-10-16T08:22:03.926Z,5.40
2022-10-16T08:24:33.474Z,5.82
2022-10-16T08:27:01.094Z,6.32
2022-10-16T08:29:28.714Z,6.93
2022-10-16T08:31:56.494Z,7.13
2022-10-16T08:34:24.251Z,5.82
2022-10-16T08:36:51.879Z,6.70
2022-10-16T08:39:19.637Z,6.25
2022-10-16T08:42:23.266Z,7.00
2022-10-16T08:45:13.193Z,6.05
2022-10-16T08:47:51.988Z,7.35
2022-10-16T08:50:25.959Z,7.57
2022-10-16T08:52:53.845Z,7.22
2022-10-16T08:55:35.675Z,7.57
2022-10-16T08:58:13.702Z,6.90
2022-10-16T09:00:42.144Z,6.63
2022-10-16T09:03:19.251Z,6.55
2022-10-16T09:05:56.200Z,7.10
2022-10-16T09:08:32.928Z,7.10
2022-10-16T09:11:08.577Z,7.38
2022-10-16T09:13:45.743Z,5.90
2022-10-16T09:16:21.866Z,6.68
2022-10-16T09:18:57.715Z,6.85
2022-10-16T09:21:27.545Z,6.95
2022-10-16T09:23:59.087Z,7.10
2022-10-16T09:26:27.053Z,7.03
2022-10-16T09:28:56.163Z,6.50
2022-10-16T09:31:25.021Z,5.50
2022-10-16T09:33:59.431Z,5.68
2022-10-16T09:36:29.855Z,20.15
2022-10-16T09:39:06.258Z,32.50
2022-10-16T09:41:37.963Z,8.93
2022-10-16T09:44:17.327Z,6.70
2022-10-16T09:46:44.915Z,5.68
2022-10-16T09:49:24.192Z,6.00
2022-10-16T09:51:54.563Z,5.05
2022-10-16T09:54:23.397Z,5.50
2022-10-16T09:56:52.864Z,5.13
2022-10-16T09:59:27.459Z,5.18
2022-10-16T10:01:56.507Z,5.53
2022-10-16T10:04:26.637Z,5.15
2022-10-16T10:06:56.532Z,4.15
2022-10-16T10:09:26.657Z,4.28
2022-10-16T10:11:56.401Z,4.60
2022-10-16T10:14:34.306Z,4.47
2022-10-16T10:17:20.905Z,4.47
2022-10-16T10:19:52.224Z,4.20
2022-10-16T10:22:32.798Z,4.35
2022-10-16T10:25:18.669Z,4.07
2022-10-16T10:27:59.010Z,4.55
2022-10-16T10:30:37.873Z,3.78
2022-10-16T10:33:20.794Z,3.42
2022-10-16T10:35:58.218Z,3.67
2022-10-16T10:38:40.356Z,3.70
2022-10-16T10:41:25.502Z,4.30
2022-10-16T10:44:05.103Z,3.72
2022-10-16T10:46:40.896Z,3.67
2022-10-16T10:49:26.627Z,3.88
2022-10-16T10:52:03.827Z,3.80
2022-10-16T10:54:38.050Z,5.53
2022-10-16T10:57:16.681Z,3.20
2022-10-16T11:00:10.378Z,3.80
2022-10-16T11:02:43.546Z,3.65
2022-10-16T11:05:42.038Z,3.60
2022-10-16T11:08:16.221Z,3.80
2022-10-16T11:10:52.528Z,3.92
2022-10-16T11:13:28.542Z,5.78
2022-10-16T11:16:00.280Z,5.80
2022-10-16T11:18:36.090Z,3.50
2022-10-16T11:21:08.679Z,3.65
2022-10-16T11:23:43.288Z,3.90
2022-10-16T11:26:16.481Z,3.38
2022-10-16T11:28:50.554Z,3.13
2022-10-16T11:31:23.968Z,2.80
2022-10-16T11:33:59.375Z,3.42
2022-10-16T11:36:35.312Z,3.30
2022-10-16T11:39:11.461Z,3.70
2022-10-16T11:41:44.893Z,3.00
2022-10-16T11:44:22.487Z,3.58
2022-10-16T11:47:24.427Z,3.30
2022-10-16T11:49:53.005Z,3.67
2022-10-16T11:52:26.681Z,3.70
2022-10-16T11:54:58.220Z,3.10
2022-10-16T11:57:29.957Z,3.35
2022-10-16T12:00:01.237Z,3.05
2022-10-16T12:02:40.783Z,3.55
2022-10-16T12:05:20.970Z,3.20
2022-10-16T12:07:57.333Z,3.67
2022-10-16T12:10:27.983Z,3.20
2022-10-16T12:12:57.267Z,2.83
2022-10-16T12:15:54.219Z,3.00
2022-10-16T12:18:23.749Z,3.15
2022-10-16T12:21:01.180Z,2.70
2022-10-16T12:23:28.998Z,2.65
2022-10-16T12:25:58.148Z,3.10
2022-10-16T12:28:29.962Z,3.22
2022-10-16T12:31:00.662Z,2.80
2022-10-16T12:33:31.187Z,2.83
2022-10-16T12:36:02.535Z,3.30
2022-10-16T12:38:38.233Z,2.90
2022-10-16T12:41:09.169Z,2.90
2022-10-16T12:43:39.791Z,3.70
2022-10-16T12:46:24.382Z,4.15
2022-10-16T12:49:08.407Z,4.93
2022-10-16T12:51:39.132Z,4.53
2022-10-16T12:54:15.567Z,3.95
2022-10-16T12:56:52.256Z,3.47
2022-10-16T12:59:30.961Z,3.47
2022-10-16T13:02:22.898Z,3.97
2022-10-16T13:05:10.873Z,3.75
2022-10-16T13:07:53.689Z,3.85
2022-10-16T13:10:29.552Z,3.90
2022-10-16T13:13:32.924Z,4.13
2022-10-16T13:16:13.049Z,3.80
2022-10-16T13:18:47.185Z,3.67
2022-10-16T13:21:28.093Z,3.70
2022-10-16T13:24:04.139Z,3.55
2022-10-16T13:26:42.566Z,3.90
2022-10-16T13:29:11.432Z,4.22
2022-10-16T13:31:41.062Z,3.60
2022-10-16T13:34:16.699Z,3.30
2022-10-16T13:36:51.482Z,3.20
2022-10-16T13:39:25.968Z,3.65
2022-10-16T13:42:07.962Z,3.58
2022-10-16T13:44:43.001Z,3.97
2022-10-16T13:47:19.875Z,3.78
2022-10-16T13:49:48.445Z,3.05
2022-10-16T13:52:21.918Z,3.58
2022-10-16T13:54:51.149Z,2.78
2022-10-16T13:57:27.351Z,3.28
2022-10-16T13:59:56.144Z,5.00
2022-10-16T14:02:28.931Z,5.07
2022-10-16T14:04:58.810Z,3.10
2022-10-16T14:07:28.863Z,3.00
2022-10-16T14:10:01.957Z,3.28
2022-10-16T14:12:30.055Z,3.90
2022-10-16T14:15:01.257Z,4.53
2022-10-16T14:17:31.150Z,4.50
2022-10-16T14:20:04.131Z,4.35
2022-10-16T14:22:36.051Z,4.25
2022-10-16T14:25:24.737Z,4.55
2022-10-16T14:30:28.831Z,4.13
2022-10-16T14:32:59.432Z,3.72
2022-10-16T14:35:30.956Z,3.67
2022-10-16T14:38:00.868Z,3.58
2022-10-16T14:40:32.741Z,3.17
2022-10-16T14:43:01.144Z,3.67
2022-10-16T14:45:31.937Z,3.35
2022-10-16T14:48:02.744Z,3.40
2022-10-16T14:50:31.175Z,3.58
2022-10-16T14:53:00.115Z,3.30
2022-10-16T14:55:28.296Z,3.80
2022-10-16T14:58:00.561Z,3.58
2022-10-16T15:00:29.391Z,2.85
2022-10-16T15:02:57.951Z,3.72
2022-10-16T15:05:27.854Z,3.30
2022-10-16T15:07:56.826Z,17.35
2022-10-16T15:10:26.280Z,4.30
2022-10-16T15:12:54.522Z,3.33
2022-10-16T15:15:38.776Z,4.13
2022-10-16T15:18:06.980Z,5.20
2022-10-16T15:20:37.788Z,4.65
2022-10-16T15:23:08.388Z,4.15
2022-10-16T15:25:41.624Z,4.13
2022-10-16T15:28:09.891Z,3.42
2022-10-16T15:30:40.023Z,4.07
2022-10-16T15:33:14.889Z,3.55
2022-10-16T15:35:42.895Z,3.55
2022-10-16T15:38:14.425Z,3.25
2022-10-16T15:40:42.747Z,3.17
2022-10-16T15:43:11.518Z,2.92
2022-10-16T15:45:40.717Z,2.83
2022-10-16T15:48:08.613Z,3.03
2022-10-16T15:50:39.172Z,3.28
2022-10-16T15:53:07.159Z,2.97
2022-10-16T15:55:38.449Z,3.33
2022-10-16T15:58:06.754Z,3.03
2022-10-16T16:00:34.992Z,3.63
2022-10-16T16:03:04.726Z,3.50
2022-10-16T16:05:34.264Z,3.70
2022-10-16T16:08:02.343Z,4.00
2022-10-16T16:10:31.075Z,3.75
2022-10-16T16:13:00.104Z,3.90
2022-10-16T16:15:27.954Z,4.00
2022-10-16T16:17:56.114Z,4.90
2022-10-16T16:20:25.328Z,3.85
2022-10-16T16:22:53.165Z,4.10
2022-10-16T16:25:20.854Z,4.25
2022-10-16T16:27:48.511Z,4.03
2022-10-16T16:30:18.670Z,4.47
2022-10-16T16:32:48.271Z,4.60
2022-10-16T16:35:16.475Z,4.07
2022-10-16T16:37:45.484Z,4.35
2022-10-16T16:40:13.312Z,4.70
2022-10-16T16:42:41.129Z,4.45
2022-10-16T16:45:10.105Z,4.80
2022-10-16T16:47:39.297Z,5.25
2022-10-16T16:50:07.978Z,5.70
2022-10-16T16:52:36.786Z,5.43
2022-10-16T16:55:06.779Z,5.00
2022-10-16T16:57:34.508Z,4.65
2022-10-16T17:00:02.238Z,4.50
2022-10-16T17:02:29.914Z,5.05
2022-10-16T17:04:58.418Z,5.70
2022-10-16T17:07:27.886Z,7.10
2022-10-16T17:09:55.809Z,10.35
2022-10-16T17:12:25.267Z,8.65
2022-10-16T17:14:53.123Z,6.88
2022-10-16T17:17:20.786Z,5.88
2022-10-16T17:19:51.824Z,5.35
2022-10-16T17:22:20.385Z,5.20
2022-10-16T17:24:52.093Z,5.45
2022-10-16T17:27:20.315Z,12.25
2022-10-16T17:29:53.544Z,25.48
2022-10-16T17:32:21.863Z,17.30
2022-10-16T17:34:49.538Z,8.35
2022-10-16T17:37:18.475Z,7.68
2022-10-16T17:39:46.301Z,6.05
2022-10-16T17:42:15.675Z,6.45
2022-10-16T17:44:43.620Z,7.55
2022-10-16T17:47:12.888Z,7.50
2022-10-16T17:49:40.725Z,7.80
2022-10-16T17:52:08.384Z,7.03
2022-10-16T17:54:36.087Z,8.23
2022-10-16T17:57:04.058Z,8.25
2022-10-16T17:59:31.691Z,7.55
2022-10-16T18:01:59.788Z,7.40
2022-10-16T18:04:29.207Z,6.97
2022-10-16T18:06:57.060Z,6.85
2022-10-16T18:09:25.041Z,5.80
2022-10-16T18:11:59.755Z,6.25
2022-10-16T18:14:28.909Z,5.85
2022-10-16T18:16:56.953Z,6.93
2022-10-16T18:19:25.549Z,6.60
2022-10-16T18:21:56.271Z,6.53
2022-10-16T18:24:25.519Z,7.32
2022-10-16T18:26:56.523Z,6.82
2022-10-16T18:29:25.306Z,6.90
2022-10-16T18:31:53.613Z,6.70
2022-10-16T18:34:21.680Z,6.93
2022-10-16T18:36:51.419Z,7.40
2022-10-16T18:39:24.764Z,6.80
2022-10-16T18:41:59.778Z,7.60
2022-10-16T18:44:28.094Z,8.73
2022-10-16T18:46:57.235Z,8.27
2022-10-16T18:49:26.312Z,7.40
2022-10-16T18:51:56.700Z,7.45
2022-10-16T18:54:26.602Z,6.95
2022-10-16T18:56:54.719Z,6.13
2022-10-16T18:59:22.820Z,7.35
2022-10-16T19:01:52.254Z,6.38
2022-10-16T19:04:22.326Z,6.40
2022-10-16T19:06:52.758Z,6.30
2022-10-16T19:09:22.728Z,6.47
2022-10-16T19:14:21.419Z,6.13
2022-10-16T19:16:49.403Z,7.18
2022-10-16T19:19:19.263Z,6.53
2022-10-16T19:21:47.987Z,7.88
2022-10-16T19:24:17.237Z,8.98
2022-10-16T19:26:45.353Z,8.23
2022-10-16T19:29:17.590Z,8.50
2022-10-16T19:31:45.431Z,8.30
2022-10-16T19:34:13.379Z,9.07
2022-10-16T19:36:41.940Z,7.85
2022-10-16T19:39:13.996Z,7.53
2022-10-16T19:41:42.379Z,8.13
2022-10-16T19:44:14.345Z,7.53
2022-10-16T19:46:44.572Z,7.10
2022-10-16T19:49:14.606Z,7.55
2022-10-16T19:51:42.338Z,7.75
2022-10-16T19:54:13.405Z,7.13
2022-10-16T19:56:41.759Z,5.95
2022-10-16T19:59:13.006Z,6.22
2022-10-16T20:01:40.839Z,5.75
2022-10-16T20:04:10.152Z,7.63
2022-10-16T20:06:38.217Z,7.57
2022-10-16T20:09:06.349Z,5.78
2022-10-16T20:11:35.981Z,5.70
2022-10-16T20:14:04.868Z,6.22
2022-10-16T20:16:33.486Z,5.82
2022-10-16T20:19:02.036Z,11.30
2022-10-16T20:21:33.995Z,7.28
2022-10-16T20:24:04.320Z,6.43
2022-10-16T20:26:32.456Z,6.80
2022-10-16T20:29:00.482Z,6.10
2022-10-16T20:31:30.484Z,6.45
2022-10-16T20:34:00.170Z,6.78
2022-10-16T20:36:30.509Z,6.65
2022-10-16T20:38:59.794Z,5.75
2022-10-16T20:41:27.615Z,7.35
2022-10-16T20:43:55.693Z,5.63
2022-10-16T20:46:25.362Z,6.57
2022-10-16T20:48:54.258Z,6.10
2022-10-16T20:51:24.022Z,6.13
2022-10-16T20:53:55.148Z,10.10
2022-10-16T20:56:25.134Z,6.28
2022-10-16T20:58:53.650Z,6.15
2022-10-16T21:01:23.679Z,5.55
2022-10-16T21:03:54.047Z,5.18
2022-10-16T21:06:22.143Z,5.25
2022-10-16T21:08:50.088Z,5.68
2022-10-16T21:11:20.071Z,5.82
2022-10-16T21:13:49.738Z,6.47
2022-10-16T21:16:17.772Z,5.60
2022-10-16T21:18:45.644Z,5.40
2022-10-16T21:21:21.871Z,6.13
2022-10-16T21:23:50.392Z,5.97
2022-10-16T21:26:20.968Z,5.82
2022-10-16T21:28:50.315Z,5.88
2022-10-16T21:31:20.218Z,5.40
2022-10-16T21:33:48.687Z,6.10
2022-10-16T21:36:18.523Z,6.18
2022-10-16T21:41:16.161Z,6.30
2022-10-16T21:43:44.299Z,5.97
2022-10-16T21:46:13.904Z,6.00
2022-10-16T21:48:42.662Z,6.18
2022-10-16T21:51:10.951Z,7.18
2022-10-16T21:53:39.108Z,7.40
2022-10-16T21:56:13.134Z,6.25
2022-10-16T21:58:40.802Z,8.35
2022-10-16T22:01:10.615Z,6.15
2022-10-16T22:03:39.658Z,6.22
2022-10-16T22:06:09.661Z,5.72
2022-10-16T22:08:38.930Z,6.30
2022-10-16T22:11:08.980Z,5.65
2022-10-16T22:13:37.276Z,5.63
2022-10-16T22:16:05.495Z,5.10
2022-10-16T22:18:34.049Z,5.30
2022-10-16T22:21:03.930Z,12.02
2022-10-16T22:23:31.550Z,6.35
2022-10-16T22:26:01.099Z,4.88
2022-10-16T22:28:28.802Z,4.78
2022-10-16T22:30:56.492Z,4.15
2022-10-16T22:33:24.158Z,3.95
2022-10-16T22:35:51.791Z,4.20
2022-10-16T22:38:20.738Z,4.72
2022-10-16T22:40:48.445Z,4.10
2022-10-16T22:43:16.268Z,4.05
2022-10-16T22:45:43.970Z,4.05
2022-10-16T22:48:11.619Z,4.68
2022-10-16T22:50:39.297Z,4.25
2022-10-16T22:53:07.147Z,4.05
2022-10-16T22:55:36.367Z,4.20
2022-10-16T22:58:04.001Z,3.60
2022-10-16T23:00:31.890Z,3.88
2022-10-16T23:02:59.719Z,3.60
2022-10-16T23:05:27.478Z,4.38
2022-10-16T23:07:55.304Z,4.15
2022-10-16T23:10:27.458Z,3.70
2022-10-16T23:12:56.463Z,4.28
2022-10-16T23:15:24.217Z,4.68
2022-10-16T23:17:51.860Z,4.30
2022-10-16T23:20:19.721Z,4.93
2022-10-16T23:22:47.323Z,4.05
2022-10-16T23:25:15.233Z,3.90
2022-10-16T23:27:42.916Z,3.83
2022-10-16T23:30:12.432Z,3.78
2022-10-16T23:32:41.336Z,3.53
2022-10-16T23:35:09.846Z,3.63
2022-10-16T23:37:37.486Z,3.42
2022-10-16T23:40:05.742Z,4.15
2022-10-16T23:42:33.390Z,3.63
2022-10-16T23:45:01.025Z,4.20
2022-10-16T23:47:30.352Z,3.22
2022-10-16T23:49:58.145Z,3.42
2022-10-16T23:52:25.853Z,4.30
2022-10-16T23:54:53.647Z,4.28
2022-10-16T23:57:21.284Z,4.32
2022-10-16T23:59:48.976Z,4.32
